Overview Statistics Trail Chart Weather Telemetry Raw packets
 

This is the latest recevied weather packets stored in our database for station/object SV9TNF-55. If no packets are shown the sender has not sent any weather packets the latest 10 day(s).

<< 1 2 3 4 >>
Time Temp. Humidity Pressure Rain* Wind** Luminosity Snow
1788664669 18.33° C 33% 1018.3 hPa 0 mm 1.79 m/s, 292° - -
1788664068 19.44° C 29% 1018.1 hPa 0 mm 2.24 m/s, 292° - -
1788663468 18.33° C 36% 1018.1 hPa 0 mm 1.79 m/s, 315° - -
1788662886 18.33° C 36% 1018.1 hPa 0 mm 1.79 m/s, 315° - -
1788662269 18.33° C 36% 1018.1 hPa 0 mm 1.79 m/s, 315° - -
1788661668 18.33° C 36% 1018.1 hPa 0 mm 1.79 m/s, 315° - -
1788661067 18.33° C 37% 1018.2 hPa 0 mm 1.79 m/s, 315° - -
1788660468 18.89° C 36% 1018.2 hPa 0 mm 1.79 m/s, 315° - -
1788659867 18.89° C 36% 1018.4 hPa 0 mm 1.79 m/s, 292° - -
1788659268 18.89° C 35% 1018.3 hPa 0 mm 2.24 m/s, 292° - -
1788658668 18.89° C 34% 1018.4 hPa 0 mm 2.24 m/s, 292° - -
1788658067 19.44° C 30% 1018.4 hPa 0 mm 1.79 m/s, 292° - -
1788657467 19.44° C 30% 1018.4 hPa 0 mm 1.79 m/s, 292° - -
1788656867 18.89° C 30% 1018.6 hPa 0 mm 1.34 m/s, 292° - -
1788656267 17.78° C 35% 1018.6 hPa 0 mm 0.45 m/s, 270° - -
1788655667 18.33° C 34% 1018.6 hPa 0 mm 0 m/s - -
1788655067 17.78° C 35% 1018.7 hPa 0 mm 0 m/s - -
1788654467 17.78° C 37% 1018.7 hPa 0 mm 0 m/s - -
1788653867 18.33° C 35% 1018.7 hPa 0 mm 0 m/s - -
1788653267 18.89° C 35% 1018.7 hPa 0 mm 0.45 m/s, 225° - -
1788652667 18.33° C 41% 1018.7 hPa 0 mm 0.45 m/s, 247° - -
1788652066 18.89° C 40% 1018.8 hPa 0 mm 0.89 m/s, 270° - -
1788651466 18.33° C 42% 1018.8 hPa 0 mm 0.89 m/s, 292° - -
1788650866 18.89° C 43% 1018.9 hPa 0 mm 0.89 m/s, 315° - -
1788650267 19.44° C 41% 1018.8 hPa 0 mm 0.89 m/s, 315° - -

* Rain latest hour (hover to see other rain measurements)
** Current wind speed in m/s (hover to see current wind gust speed)